createdAt,value
2022-11-04T00:02:07.675Z,21.77
2022-11-04T00:04:35.517Z,21.92
2022-11-04T00:07:02.787Z,21.58
2022-11-04T00:09:30.701Z,22.33
2022-11-04T00:11:58.496Z,25.95
2022-11-04T00:14:26.097Z,22.67
2022-11-04T00:16:53.465Z,26.30
2022-11-04T00:19:22.994Z,20.15
2022-11-04T00:21:50.789Z,20.52
2022-11-04T00:24:18.100Z,25.00
2022-11-04T00:26:45.809Z,21.58
2022-11-04T00:29:13.050Z,21.40
2022-11-04T00:31:40.865Z,27.30
2022-11-04T00:34:08.157Z,21.23
2022-11-04T00:36:36.849Z,24.73
2022-11-04T00:39:04.709Z,22.70
2022-11-04T00:41:32.048Z,23.77
2022-11-04T00:44:01.317Z,24.55
2022-11-04T00:46:30.343Z,23.17
2022-11-04T00:48:58.407Z,19.23
2022-11-04T00:51:26.528Z,27.42
2022-11-04T00:53:55.979Z,23.92
2022-11-04T00:56:24.019Z,22.88
2022-11-04T00:58:51.329Z,20.77
2022-11-04T01:01:19.952Z,20.83
2022-11-04T01:03:49.052Z,25.38
2022-11-04T01:06:17.647Z,24.60
2022-11-04T01:08:45.366Z,21.63
2022-11-04T01:11:14.817Z,22.90
2022-11-04T01:13:42.465Z,22.58
2022-11-04T01:16:11.686Z,20.83
2022-11-04T01:18:40.049Z,22.67
2022-11-04T01:21:10.474Z,22.05
2022-11-04T01:23:37.726Z,27.52
2022-11-04T01:26:05.679Z,23.77
2022-11-04T01:28:34.774Z,23.15
2022-11-04T01:31:06.518Z,21.60
2022-11-04T01:33:33.793Z,22.27
2022-11-04T01:36:02.445Z,25.65
2022-11-04T01:38:29.982Z,23.27
2022-11-04T01:40:58.279Z,25.48
2022-11-04T01:43:45.014Z,22.65
2022-11-04T01:46:20.662Z,22.60
2022-11-04T01:48:48.157Z,23.05
2022-11-04T01:51:16.238Z,21.83
2022-11-04T01:53:44.681Z,17.75
2022-11-04T01:56:14.145Z,21.33
2022-11-04T01:58:48.292Z,25.50
2022-11-04T02:01:18.580Z,21.38
2022-11-04T02:03:50.706Z,21.52
2022-11-04T02:06:19.639Z,20.80
2022-11-04T02:08:48.041Z,18.33
2022-11-04T02:11:16.305Z,24.20
2022-11-04T02:13:45.421Z,22.98
2022-11-04T02:16:24.201Z,24.45
2022-11-04T02:19:04.042Z,23.80
2022-11-04T02:21:57.418Z,19.23
2022-11-04T02:24:51.623Z,21.90
2022-11-04T02:27:58.292Z,21.02
2022-11-04T02:30:31.387Z,20.88
2022-11-04T02:33:16.919Z,21.25
2022-11-04T02:35:52.266Z,20.02
2022-11-04T02:38:32.655Z,16.98
2022-11-04T02:41:09.898Z,20.15
2022-11-04T02:43:48.221Z,21.40
2022-11-04T02:46:24.482Z,22.42
2022-11-04T02:49:00.154Z,27.60
2022-11-04T02:51:32.156Z,20.65
2022-11-04T02:54:12.366Z,24.90
2022-11-04T02:56:48.211Z,24.05
2022-11-04T02:59:21.453Z,24.38
2022-11-04T03:01:54.050Z,26.05
2022-11-04T03:04:28.389Z,19.88
2022-11-04T03:06:59.235Z,23.75
2022-11-04T03:09:29.501Z,28.27
2022-11-04T03:12:02.439Z,21.85
2022-11-04T03:17:06.602Z,26.40
2022-11-04T03:19:42.785Z,28.02
2022-11-04T03:22:12.886Z,27.83
2022-11-04T03:24:41.903Z,25.35
2022-11-04T03:27:17.986Z,28.52
2022-11-04T03:29:55.869Z,22.27
2022-11-04T03:34:57.296Z,26.83
2022-11-04T03:37:25.118Z,25.20
2022-11-04T03:39:52.426Z,30.27
2022-11-04T03:42:22.005Z,27.30
2022-11-04T03:44:50.398Z,22.95
2022-11-04T03:47:20.110Z,28.15
2022-11-04T03:49:50.036Z,29.35
2022-11-04T03:52:19.235Z,29.90
2022-11-04T03:54:47.354Z,31.90
2022-11-04T03:57:35.395Z,32.92
2022-11-04T04:00:09.933Z,33.40
2022-11-04T04:03:00.626Z,29.50
2022-11-04T04:05:31.620Z,30.73
2022-11-04T04:08:13.786Z,28.52
2022-11-04T04:10:48.431Z,30.30
2022-11-04T04:13:27.859Z,32.00
2022-11-04T04:15:59.106Z,30.70
2022-11-04T04:18:36.372Z,34.38
2022-11-04T04:21:09.551Z,32.50
2022-11-04T04:23:40.907Z,30.42
2022-11-04T04:26:10.421Z,30.45
2022-11-04T04:28:39.506Z,36.08
2022-11-04T04:31:08.466Z,30.63
2022-11-04T04:33:36.148Z,32.67
2022-11-04T04:36:09.544Z,35.58
2022-11-04T04:38:41.468Z,30.67
2022-11-04T04:41:13.932Z,37.50
2022-11-04T04:43:43.793Z,34.08
2022-11-04T04:46:12.425Z,37.22
2022-11-04T04:48:40.260Z,34.75
2022-11-04T04:51:09.429Z,31.40
2022-11-04T04:53:37.382Z,41.35
2022-11-04T04:56:05.053Z,32.38
2022-11-04T04:58:33.396Z,35.63
2022-11-04T05:01:00.703Z,33.60
2022-11-04T05:03:28.577Z,34.10
2022-11-04T05:05:57.852Z,34.50
2022-11-04T05:08:28.355Z,33.92
2022-11-04T05:10:55.622Z,30.85
2022-11-04T05:13:22.910Z,31.30
2022-11-04T05:15:51.078Z,32.92
2022-11-04T05:18:18.722Z,31.77
2022-11-04T05:20:46.752Z,33.47
2022-11-04T05:23:14.276Z,32.13
2022-11-04T05:25:43.718Z,37.08
2022-11-04T05:28:11.274Z,31.85
2022-11-04T05:30:39.549Z,33.92
2022-11-04T05:33:07.504Z,33.60
2022-11-04T05:35:36.222Z,34.58
2022-11-04T05:38:03.573Z,35.63
2022-11-04T05:40:31.299Z,35.10
2022-11-04T05:43:00.835Z,38.28
2022-11-04T05:45:29.331Z,36.30
2022-11-04T05:48:04.522Z,32.60
2022-11-04T05:50:36.308Z,36.17
2022-11-04T05:53:03.937Z,31.23
2022-11-04T05:55:33.641Z,33.22
2022-11-04T05:58:04.071Z,35.47
2022-11-04T06:00:31.839Z,31.05
2022-11-04T06:02:59.334Z,31.38
2022-11-04T06:05:27.977Z,32.58
2022-11-04T06:07:56.211Z,38.88
2022-11-04T06:10:25.224Z,33.03
2022-11-04T06:12:52.539Z,31.33
2022-11-04T06:15:21.770Z,33.83
2022-11-04T06:17:49.000Z,34.38
2022-11-04T06:20:16.984Z,35.65
2022-11-04T06:22:44.226Z,32.65
2022-11-04T06:25:11.940Z,37.63
2022-11-04T06:27:39.465Z,33.15
2022-11-04T06:30:08.937Z,36.75
2022-11-04T06:32:37.779Z,36.08
2022-11-04T06:35:06.417Z,35.53
2022-11-04T06:37:33.588Z,35.47
2022-11-04T06:40:01.241Z,33.03
2022-11-04T06:42:28.821Z,32.67
2022-11-04T06:44:56.626Z,32.92
2022-11-04T06:47:25.111Z,32.22
2022-11-04T06:49:54.258Z,35.05
2022-11-04T06:52:21.550Z,33.65
2022-11-04T06:54:49.291Z,31.50
2022-11-04T06:57:19.439Z,29.80
2022-11-04T06:59:47.161Z,33.08
2022-11-04T07:02:14.557Z,33.72
2022-11-04T07:04:42.585Z,27.98
2022-11-04T07:07:11.477Z,29.02
2022-11-04T07:09:40.002Z,29.10
2022-11-04T07:12:07.311Z,29.48
2022-11-04T07:14:35.114Z,25.40
2022-11-04T07:17:02.565Z,28.75
2022-11-04T07:19:30.295Z,29.20
2022-11-04T07:21:57.677Z,32.75
2022-11-04T07:24:27.158Z,25.33
2022-11-04T07:26:54.826Z,24.75
2022-11-04T07:29:22.607Z,26.83
2022-11-04T07:31:50.014Z,27.98
2022-11-04T07:34:17.744Z,25.63
2022-11-04T07:36:47.788Z,25.40
2022-11-04T07:39:15.523Z,25.23
2022-11-04T07:41:48.772Z,28.25
2022-11-04T07:44:16.464Z,26.10
2022-11-04T07:46:43.811Z,25.80
2022-11-04T07:49:11.789Z,25.90
2022-11-04T07:51:39.068Z,27.95
2022-11-04T07:54:07.100Z,27.45
2022-11-04T07:56:35.248Z,28.02
2022-11-04T07:59:07.179Z,31.27
2022-11-04T08:01:35.211Z,27.92
2022-11-04T08:04:03.421Z,30.58
2022-11-04T08:06:34.056Z,29.02
2022-11-04T08:09:01.946Z,23.70
2022-11-04T08:11:29.348Z,29.65
2022-11-04T08:13:57.035Z,29.90
2022-11-04T08:16:29.948Z,27.80
2022-11-04T08:18:59.236Z,26.92
2022-11-04T08:21:26.507Z,30.77
2022-11-04T08:23:54.268Z,27.55
2022-11-04T08:26:22.671Z,30.35
2022-11-04T08:28:50.786Z,27.05
2022-11-04T08:31:20.111Z,21.80
2022-11-04T08:33:49.491Z,23.27
2022-11-04T08:36:19.047Z,20.98
2022-11-04T08:38:47.228Z,25.40
2022-11-04T08:41:17.236Z,21.27
2022-11-04T08:43:45.229Z,21.80
2022-11-04T08:46:13.595Z,19.83
2022-11-04T08:48:42.669Z,21.58
2022-11-04T08:51:15.820Z,21.42
2022-11-04T08:53:44.415Z,22.23
2022-11-04T08:56:13.517Z,20.25
2022-11-04T08:58:41.304Z,18.35
2022-11-04T09:01:35.992Z,19.63
2022-11-04T09:04:05.402Z,18.70
2022-11-04T09:06:38.668Z,16.95
2022-11-04T09:09:07.561Z,22.02
2022-11-04T09:11:38.162Z,20.38
2022-11-04T09:14:06.373Z,17.77
2022-11-04T09:16:35.404Z,20.80
2022-11-04T09:19:05.876Z,18.58
2022-11-04T09:21:34.779Z,19.40
2022-11-04T09:24:02.483Z,20.42
2022-11-04T09:26:30.582Z,18.45
2022-11-04T09:28:59.731Z,19.42
2022-11-04T09:31:30.433Z,20.23
2022-11-04T09:33:58.345Z,20.50
2022-11-04T09:36:26.340Z,18.52
2022-11-04T09:38:55.763Z,16.27
2022-11-04T09:42:02.701Z,17.27
2022-11-04T09:45:07.000Z,18.83
2022-11-04T09:47:28.668Z,19.50
2022-11-04T09:49:59.690Z,18.10
2022-11-04T09:52:29.655Z,20.48
2022-11-04T09:55:03.536Z,20.58
2022-11-04T09:57:31.027Z,19.95
2022-11-04T09:59:59.228Z,20.77
2022-11-04T10:02:50.963Z,17.20
2022-11-04T10:05:37.295Z,19.95
2022-11-04T10:08:36.639Z,16.90
2022-11-04T10:11:14.215Z,18.77
2022-11-04T10:13:56.308Z,17.75
2022-11-04T10:16:41.214Z,20.50
2022-11-04T10:19:36.004Z,17.38
2022-11-04T10:22:09.213Z,17.70
2022-11-04T10:24:42.318Z,17.65
2022-11-04T10:27:16.204Z,18.58
2022-11-04T10:29:45.302Z,18.17
2022-11-04T10:32:22.058Z,17.13
2022-11-04T10:34:54.717Z,21.02
2022-11-04T10:37:24.952Z,18.90
2022-11-04T10:39:57.189Z,17.25
2022-11-04T10:42:28.676Z,16.05
2022-11-04T10:44:56.043Z,17.35
2022-11-04T10:47:40.363Z,16.75
2022-11-04T10:50:31.619Z,18.60
2022-11-04T10:53:11.635Z,15.50
2022-11-04T10:55:45.135Z,20.17
2022-11-04T10:58:20.116Z,17.48
2022-11-04T11:00:47.618Z,17.80
2022-11-04T11:03:30.387Z,16.13
2022-11-04T11:06:13.192Z,16.90
2022-11-04T11:08:42.825Z,16.45
2022-11-04T11:11:11.464Z,16.83
2022-11-04T11:13:43.284Z,19.02
2022-11-04T11:16:13.389Z,19.10
2022-11-04T11:18:41.415Z,19.00
2022-11-04T11:21:12.618Z,17.67
2022-11-04T11:23:45.180Z,20.75
2022-11-04T11:26:14.591Z,20.63
2022-11-04T11:28:53.149Z,18.95
2022-11-04T11:31:24.684Z,19.98
2022-11-04T11:33:56.139Z,18.95
2022-11-04T11:36:25.261Z,18.80
2022-11-04T11:38:57.146Z,23.33
2022-11-04T11:41:26.170Z,23.98
2022-11-04T11:43:56.417Z,19.38
2022-11-04T11:46:25.738Z,20.50
2022-11-04T11:48:55.216Z,18.75
2022-11-04T11:51:31.707Z,21.45
2022-11-04T11:54:19.853Z,21.67
2022-11-04T12:02:43.122Z,19.83
2022-11-04T12:11:07.406Z,17.77
2022-11-04T12:13:39.721Z,21.08
2022-11-04T12:16:21.817Z,18.17
2022-11-04T12:19:28.504Z,17.80
2022-11-04T12:22:02.807Z,17.35
2022-11-04T12:24:38.598Z,17.90
2022-11-04T12:27:15.210Z,16.98
2022-11-04T12:29:55.218Z,18.23
2022-11-04T12:32:35.470Z,17.05
2022-11-04T12:35:22.130Z,16.60
2022-11-04T12:38:03.429Z,17.25
2022-11-04T12:40:39.514Z,18.40
2022-11-04T12:43:20.097Z,16.08
2022-11-04T12:46:04.534Z,18.27
2022-11-04T12:48:53.062Z,18.30
2022-11-04T12:51:37.626Z,18.10
2022-11-04T12:54:27.898Z,18.73
2022-11-04T12:57:08.798Z,19.15
2022-11-04T12:59:54.196Z,17.65
2022-11-04T13:02:25.339Z,21.63
2022-11-04T13:05:00.759Z,19.55
2022-11-04T13:07:33.928Z,17.35
2022-11-04T13:10:07.716Z,17.90
2022-11-04T13:12:40.100Z,18.95
2022-11-04T13:15:16.727Z,21.48
2022-11-04T13:17:46.620Z,18.92
2022-11-04T13:20:24.860Z,24.13
2022-11-04T13:23:03.204Z,17.98
2022-11-04T13:25:37.414Z,16.67
2022-11-04T13:28:10.888Z,17.55
2022-11-04T13:30:43.880Z,18.98
2022-11-04T13:33:23.184Z,18.77
2022-11-04T13:36:13.085Z,21.17
2022-11-04T13:38:44.326Z,18.88
2022-11-04T13:41:37.327Z,18.60
2022-11-04T13:44:13.744Z,19.25
2022-11-04T13:46:50.087Z,21.42
2022-11-04T13:49:26.375Z,21.70
2022-11-04T13:52:05.558Z,21.15
2022-11-04T13:54:35.976Z,17.25
2022-11-04T13:57:06.880Z,20.40
2022-11-04T13:59:34.889Z,21.77
2022-11-04T14:02:38.492Z,20.23
2022-11-04T14:05:51.497Z,24.13
2022-11-04T14:08:20.719Z,25.42
2022-11-04T14:11:11.935Z,18.67
2022-11-04T14:14:01.664Z,22.08
2022-11-04T14:16:41.162Z,19.15
2022-11-04T14:19:54.124Z,26.20
2022-11-04T14:22:21.875Z,25.70
2022-11-04T14:24:57.279Z,55.60
2022-11-04T14:27:28.161Z,59.90
2022-11-04T14:29:56.056Z,76.80
2022-11-04T14:35:18.469Z,62.17
2022-11-04T14:37:55.765Z,68.82
2022-11-04T14:40:28.661Z,72.45
2022-11-04T14:45:26.965Z,43.30
2022-11-04T14:47:57.238Z,42.35
2022-11-04T14:50:27.756Z,32.67
2022-11-04T14:52:58.236Z,30.63
2022-11-04T14:55:29.428Z,22.90
2022-11-04T14:57:58.513Z,25.75
2022-11-04T15:00:32.088Z,40.70
2022-11-04T15:03:04.748Z,45.13
2022-11-04T15:05:34.309Z,55.15
2022-11-04T15:08:01.953Z,56.35
2022-11-04T15:10:31.170Z,49.00
2022-11-04T15:13:01.388Z,42.17
2022-11-04T15:15:34.892Z,30.52
2022-11-04T15:18:06.282Z,26.52
2022-11-04T15:20:38.774Z,25.88
2022-11-04T15:23:12.444Z,27.02
2022-11-04T15:25:46.747Z,24.17
2022-11-04T15:28:19.602Z,27.13
2022-11-04T15:31:09.413Z,23.88
2022-11-04T15:33:40.595Z,32.60
2022-11-04T15:36:12.730Z,26.30
2022-11-04T15:38:44.931Z,30.73
2022-11-04T15:41:15.548Z,31.00
2022-11-04T15:43:45.049Z,25.40
2022-11-04T15:46:20.051Z,27.55
2022-11-04T15:49:01.366Z,29.33
2022-11-04T15:51:33.602Z,31.70
2022-11-04T15:54:04.608Z,32.55
2022-11-04T15:56:40.621Z,35.22
2022-11-04T15:59:12.578Z,37.42
2022-11-04T16:01:47.905Z,33.95
2022-11-04T16:04:16.332Z,37.95
2022-11-04T16:06:45.122Z,28.77
2022-11-04T16:09:22.064Z,29.08
2022-11-04T16:12:13.767Z,29.15
2022-11-04T16:14:48.103Z,32.30
2022-11-04T16:17:16.059Z,36.70
2022-11-04T16:19:48.158Z,35.45
2022-11-04T16:22:21.289Z,41.38
2022-11-04T16:24:51.616Z,33.33
2022-11-04T16:27:22.934Z,39.70
2022-11-04T16:30:06.447Z,36.38
2022-11-04T16:32:41.887Z,40.97
2022-11-04T16:35:16.663Z,34.58
2022-11-04T16:37:44.586Z,39.53
2022-11-04T16:40:12.949Z,38.75
2022-11-04T16:42:42.421Z,32.97
2022-11-04T16:45:20.107Z,39.90
2022-11-04T16:47:47.723Z,35.95
2022-11-04T16:50:17.093Z,32.92
2022-11-04T16:52:45.120Z,39.70
2022-11-04T16:55:13.671Z,34.25
2022-11-04T16:57:43.828Z,31.30
2022-11-04T17:00:18.803Z,29.98
2022-11-04T17:02:46.879Z,29.40
2022-11-04T17:05:14.135Z,28.95
2022-11-04T17:08:04.458Z,27.77
2022-11-04T17:10:30.046Z,30.60
2022-11-04T17:12:59.097Z,35.08
2022-11-04T17:15:26.530Z,39.40
2022-11-04T17:17:54.153Z,42.80
2022-11-04T17:20:21.838Z,41.70
2022-11-04T17:22:50.133Z,43.17
2022-11-04T17:25:20.343Z,43.03
2022-11-04T17:27:48.695Z,41.17
2022-11-04T17:30:18.935Z,40.50
2022-11-04T17:32:47.537Z,43.03
2022-11-04T17:35:15.741Z,39.72
2022-11-04T17:37:44.141Z,39.17
2022-11-04T17:40:15.499Z,36.00
2022-11-04T17:42:43.445Z,38.60
2022-11-04T17:45:11.219Z,38.72
2022-11-04T17:47:40.705Z,36.78
2022-11-04T17:50:08.924Z,35.88
2022-11-04T17:52:37.887Z,35.85
2022-11-04T17:55:06.281Z,34.90
2022-11-04T17:57:34.716Z,40.92
2022-11-04T18:00:02.339Z,38.63
2022-11-04T18:02:30.323Z,37.33
2022-11-04T18:04:59.274Z,34.70
2022-11-04T18:07:27.169Z,31.20
2022-11-04T18:09:54.710Z,36.50
2022-11-04T18:12:22.525Z,36.28
2022-11-04T18:14:49.974Z,35.95
2022-11-04T18:17:17.824Z,34.30
2022-11-04T18:19:48.318Z,41.65
2022-11-04T18:22:20.725Z,37.05
2022-11-04T18:24:50.252Z,37.38
2022-11-04T18:27:21.265Z,43.20
2022-11-04T18:29:50.609Z,46.25
2022-11-04T18:32:18.394Z,41.92
2022-11-04T18:34:46.213Z,43.90
2022-11-04T18:37:13.936Z,44.67
2022-11-04T18:39:44.139Z,45.78
2022-11-04T18:42:17.862Z,42.92
2022-11-04T18:44:45.336Z,40.55
2022-11-04T18:47:14.209Z,43.55
2022-11-04T18:49:41.817Z,39.90
2022-11-04T18:52:09.494Z,39.17
2022-11-04T18:54:37.166Z,40.05
2022-11-04T18:57:06.416Z,39.63
2022-11-04T18:59:34.018Z,42.90
2022-11-04T19:02:02.197Z,42.90
2022-11-04T19:04:29.985Z,37.28
2022-11-04T19:06:57.848Z,41.15
2022-11-04T19:09:46.028Z,41.42
2022-11-04T19:12:14.860Z,40.97
2022-11-04T19:14:42.419Z,40.78
2022-11-04T19:17:10.315Z,46.42
2022-11-04T19:19:37.626Z,47.83
2022-11-04T19:22:05.428Z,45.72
2022-11-04T19:24:32.877Z,45.92
2022-11-04T19:27:00.911Z,41.53
2022-11-04T19:29:30.068Z,46.97
2022-11-04T19:31:57.940Z,45.53
2022-11-04T19:34:25.364Z,45.95
2022-11-04T19:36:53.147Z,38.05
2022-11-04T19:39:20.637Z,44.78
2022-11-04T19:41:51.277Z,43.38
2022-11-04T19:44:20.226Z,40.47
2022-11-04T19:46:50.634Z,38.47
2022-11-04T19:49:18.437Z,40.78
2022-11-04T19:51:46.426Z,44.10
2022-11-04T19:54:13.912Z,41.38
2022-11-04T19:56:41.985Z,39.67
2022-11-04T19:59:10.951Z,44.97
2022-11-04T20:01:38.999Z,40.20
2022-11-04T20:04:08.065Z,41.97
2022-11-04T20:06:36.693Z,41.58
2022-11-04T20:09:05.750Z,47.40
2022-11-04T20:11:35.275Z,42.88
2022-11-04T20:14:07.751Z,41.58
2022-11-04T20:16:36.105Z,43.17
2022-11-04T20:19:03.861Z,40.05
2022-11-04T20:21:34.872Z,45.20
2022-11-04T20:24:04.116Z,44.83
2022-11-04T20:26:33.797Z,41.85
2022-11-04T20:29:01.473Z,38.53
2022-11-04T20:31:31.462Z,37.03
2022-11-04T20:33:59.651Z,36.00
2022-11-04T20:36:28.858Z,35.80
2022-11-04T20:38:59.280Z,36.90
2022-11-04T20:41:27.620Z,38.65
2022-11-04T20:43:55.194Z,38.80
2022-11-04T20:46:25.469Z,35.22
2022-11-04T20:48:53.397Z,35.72
2022-11-04T20:51:24.001Z,37.03
2022-11-04T20:53:51.791Z,37.03
2022-11-04T20:56:21.095Z,35.95
2022-11-04T20:58:49.610Z,36.13
2022-11-04T21:01:42.249Z,35.10
2022-11-04T21:04:11.250Z,32.42
2022-11-04T21:06:39.710Z,29.80
2022-11-04T21:09:09.339Z,31.05
2022-11-04T21:11:39.142Z,32.55
2022-11-04T21:14:07.921Z,31.17
2022-11-04T21:16:36.280Z,35.33
2022-11-04T21:19:04.823Z,36.83
2022-11-04T21:21:32.956Z,35.53
2022-11-04T21:24:02.006Z,35.85
2022-11-04T21:26:31.872Z,36.10
2022-11-04T21:29:02.195Z,41.78
2022-11-04T21:31:32.222Z,38.22
2022-11-04T21:34:00.031Z,38.55
2022-11-04T21:36:27.826Z,38.95
2022-11-04T21:38:55.859Z,36.35
2022-11-04T21:41:25.919Z,41.42
2022-11-04T21:43:57.180Z,35.97
2022-11-04T21:46:27.769Z,34.90
2022-11-04T21:48:55.834Z,32.95
2022-11-04T21:51:26.275Z,35.53
2022-11-04T21:53:53.474Z,37.35
2022-11-04T21:56:22.614Z,33.20
2022-11-04T21:58:51.350Z,37.08
2022-11-04T22:01:21.317Z,35.58
2022-11-04T22:03:52.079Z,34.28
2022-11-04T22:06:19.961Z,38.78
2022-11-04T22:08:49.948Z,39.08
2022-11-04T22:11:19.948Z,31.20
2022-11-04T22:13:47.974Z,28.00
2022-11-04T22:16:18.514Z,27.63
2022-11-04T22:18:47.211Z,28.90
2022-11-04T22:21:17.879Z,29.50
2022-11-04T22:23:46.613Z,30.00
2022-11-04T22:26:16.565Z,32.75
2022-11-04T22:28:44.679Z,27.50
2022-11-04T22:31:14.964Z,33.30
2022-11-04T22:33:43.311Z,32.10
2022-11-04T22:36:11.581Z,29.58
2022-11-04T22:38:41.818Z,27.42
2022-11-04T22:41:11.299Z,31.30
2022-11-04T22:43:39.338Z,26.05
2022-11-04T22:46:09.099Z,24.75
2022-11-04T22:48:37.523Z,27.52
2022-11-04T22:51:05.519Z,24.65
2022-11-04T22:53:33.567Z,23.02
2022-11-04T22:56:04.181Z,22.52
2022-11-04T22:58:32.388Z,25.20
2022-11-04T23:01:01.802Z,23.27
2022-11-04T23:03:29.952Z,23.60
2022-11-04T23:05:58.599Z,26.58
2022-11-04T23:08:28.120Z,22.20
2022-11-04T23:10:57.130Z,17.88
2022-11-04T23:13:26.294Z,17.73
2022-11-04T23:15:53.837Z,17.70
2022-11-04T23:18:21.205Z,17.80
2022-11-04T23:20:49.629Z,19.05
2022-11-04T23:23:17.092Z,19.35
2022-11-04T23:25:45.279Z,20.38
2022-11-04T23:28:12.733Z,20.30
2022-11-04T23:30:44.010Z,18.85
2022-11-04T23:33:13.680Z,16.98
2022-11-04T23:35:44.272Z,17.38
2022-11-04T23:38:12.451Z,17.20
2022-11-04T23:40:40.363Z,18.17
2022-11-04T23:43:07.816Z,16.48
2022-11-04T23:45:35.863Z,15.13
2022-11-04T23:48:05.078Z,16.83
2022-11-04T23:50:33.973Z,16.20
2022-11-04T23:53:03.590Z,15.20
2022-11-04T23:55:30.946Z,15.35
2022-11-04T23:57:58.717Z,12.95
